Time,TemperatureF,DewpointF,PressureIn,WindDirection,WindDirectionDegrees,WindSpeedMPH,WindSpeedGustMPH,Humidity,HourlyPrecipIn,Conditions,Clouds,dailyrainin,SoftwareType,DateUTC
2013-01-29 00:14:00,35.7,34.0,30.30,ENE,63,0.0,2.0,93,0.04,,,0.79,weatherlink.com 1.10,2013-01-29 05:14:00,
2013-01-29 00:29:00,36.0,34.0,30.29,ENE,63,0.0,1.0,93,0.03,,,0.79,weatherlink.com 1.10,2013-01-29 05:29:00,
2013-01-29 00:44:00,36.0,34.0,30.29,ENE,63,0.0,0.0,92,0.03,,,0.80,weatherlink.com 1.10,2013-01-29 05:44:00,
2013-01-29 00:59:00,35.9,34.0,30.29,ENE,63,0.0,2.0,92,0.03,,,0.81,weatherlink.com 1.10,2013-01-29 05:59:00,
2013-01-29 01:14:00,36.0,34.0,30.29,ENE,63,0.0,1.0,93,0.02,,,0.81,weatherlink.com 1.10,2013-01-29 06:14:00,
2013-01-29 01:29:00,35.9,34.0,30.29,ENE,63,0.0,0.0,93,0.03,,,0.82,weatherlink.com 1.10,2013-01-29 06:29:00,
2013-01-29 01:44:00,35.9,34.0,30.29,ENE,63,0.0,0.0,93,0.02,,,0.82,weatherlink.com 1.10,2013-01-29 06:44:00,
2013-01-29 01:59:00,35.3,33.0,30.28,ENE,63,0.0,1.0,92,0.02,,,0.00,weatherlink.com 1.10,2013-01-29 06:59:00,
2013-01-29 02:14:00,35.0,33.0,30.28,ENE,63,0.0,1.0,93,0.02,,,0.00,weatherlink.com 1.10,2013-01-29 07:14:00,
2013-01-29 02:29:00,34.4,33.0,30.28,ENE,63,0.0,1.0,93,0.01,,,0.00,weatherlink.com 1.10,2013-01-29 07:29:00,
2013-01-29 02:44:00,34.0,33.0,30.28,ENE,63,0.0,0.0,94,0.01,,,0.00,weatherlink.com 1.10,2013-01-29 07:44:00,
2013-01-29 02:59:00,34.0,33.0,30.28,ENE,63,0.0,1.0,94,0.00,,,0.00,weatherlink.com 1.10,2013-01-29 07:59:00,
2013-01-29 03:14:00,33.6,32.0,30.28,ENE,63,0.0,0.0,94,0.00,,,0.00,weatherlink.com 1.10,2013-01-29 08:14:00,
2013-01-29 03:29:00,33.3,32.0,30.28,ENE,63,0.0,0.0,94,0.00,,,0.00,weatherlink.com 1.10,2013-01-29 08:29:00,
2013-01-29 03:44:00,33.1,32.0,30.27,ENE,63,1.0,1.0,94,0.00,,,0.00,weatherlink.com 1.10,2013-01-29 08:44:00,
2013-01-29 03:59:00,32.8,31.0,30.27,ENE,63,0.0,0.0,94,0.00,,,0.00,weatherlink.com 1.10,2013-01-29 08:59:00,
2013-01-29 04:14:00,32.7,32.0,30.28,ENE,63,0.0,0.0,95,0.00,,,0.00,weatherlink.com 1.10,2013-01-29 09:14:00,
2013-01-29 04:29:00,32.5,31.0,30.27,ENE,63,0.0,0.0,95,0.00,,,0.00,weatherlink.com 1.10,2013-01-29 09:29:00,
2013-01-29 04:44:00,32.0,31.0,30.28,ENE,63,0.0,1.0,94,0.00,,,0.00,weatherlink.com 1.10,2013-01-29 09:44:00,
2013-01-29 04:59:00,31.7,30.0,30.28,ENE,63,0.0,0.0,94,0.00,,,0.00,weatherlink.com 1.10,2013-01-29 09:59:00,
2013-01-29 05:14:00,31.6,30.0,30.28,ENE,63,0.0,0.0,95,0.00,,,0.00,weatherlink.com 1.10,2013-01-29 10:14:00,
2013-01-29 05:29:00,31.2,30.0,30.28,ENE,63,0.0,0.0,95,0.00,,,0.00,weatherlink.com 1.10,2013-01-29 10:29:00,
2013-01-29 05:44:00,31.0,30.0,30.27,ENE,63,0.0,0.0,95,0.00,,,0.00,weatherlink.com 1.10,2013-01-29 10:44:00,
2013-01-29 05:59:00,31.0,30.0,30.28,ENE,63,0.0,0.0,95,0.00,,,0.00,weatherlink.com 1.10,2013-01-29 10:59:00,
2013-01-29 06:14:00,30.8,30.0,30.28,ENE,63,0.0,0.0,95,0.00,,,0.00,weatherlink.com 1.10,2013-01-29 11:14:00,
2013-01-29 06:29:00,30.5,29.0,30.28,ENE,63,0.0,0.0,95,0.00,,,0.00,weatherlink.com 1.10,2013-01-29 11:29:00,
2013-01-29 06:44:00,30.2,29.0,30.28,ENE,63,0.0,0.0,95,0.00,,,0.00,weatherlink.com 1.10,2013-01-29 11:44:00,
2013-01-29 06:59:00,30.1,29.0,30.28,ENE,63,0.0,0.0,95,0.00,,,0.00,weatherlink.com 1.10,2013-01-29 11:59:00,
2013-01-29 07:14:00,30.1,29.0,30.29,ENE,63,0.0,0.0,95,0.00,,,0.00,weatherlink.com 1.10,2013-01-29 12:14:00,
2013-01-29 07:29:00,29.9,29.0,30.29,ENE,63,0.0,0.0,95,0.00,,,0.00,weatherlink.com 1.10,2013-01-29 12:29:00,
2013-01-29 07:44:00,29.8,29.0,30.30,ENE,63,0.0,0.0,95,0.00,,,0.00,weatherlink.com 1.10,2013-01-29 12:44:00,
2013-01-29 07:59:00,29.8,29.0,30.29,ENE,63,0.0,0.0,95,0.00,,,0.00,weatherlink.com 1.10,2013-01-29 12:59:00,
2013-01-29 08:14:00,30.1,29.0,30.29,ENE,63,0.0,0.0,95,0.00,,,0.00,weatherlink.com 1.10,2013-01-29 13:14:00,
2013-01-29 08:29:00,30.6,30.0,30.29,ENE,63,0.0,0.0,96,0.00,,,0.00,weatherlink.com 1.10,2013-01-29 13:29:00,
2013-01-29 08:44:00,31.1,30.0,30.29,ENE,63,0.0,0.0,96,0.00,,,0.00,weatherlink.com 1.10,2013-01-29 13:44:00,
2013-01-29 08:59:00,31.8,31.0,30.29,ENE,63,0.0,1.0,96,0.00,,,0.00,weatherlink.com 1.10,2013-01-29 13:59:00,
2013-01-29 09:14:00,32.7,32.0,30.29,ENE,63,0.0,0.0,96,0.00,,,0.00,weatherlink.com 1.10,2013-01-29 14:14:00,
2013-01-29 09:29:00,34.2,33.0,30.29,NNW,341,0.0,2.0,96,0.00,,,0.00,weatherlink.com 1.10,2013-01-29 14:29:00,
2013-01-29 09:44:00,36.2,36.0,30.29,NNW,341,0.0,1.0,97,0.00,,,0.00,weatherlink.com 1.10,2013-01-29 14:44:00,
2013-01-29 09:59:00,37.7,37.0,30.28,NNW,341,0.0,1.0,97,0.00,,,0.00,weatherlink.com 1.10,2013-01-29 14:59:00,
2013-01-29 10:14:00,39.8,39.0,30.28,NNW,339,0.0,0.0,96,0.00,,,0.00,weatherlink.com 1.10,2013-01-29 15:14:00,
2013-01-29 10:29:00,42.1,40.0,30.27,NNW,339,0.0,1.0,92,0.00,,,0.00,weatherlink.com 1.10,2013-01-29 15:29:00,
2013-01-29 10:44:00,44.6,42.0,30.26,NNW,338,0.0,2.0,89,0.01,,,0.01,weatherlink.com 1.10,2013-01-29 15:44:00,
2013-01-29 11:00:00,47.3,43.0,30.25,NNW,330,0.0,3.0,84,0.01,,,0.01,weatherlink.com 1.10,2013-01-29 16:00:00,
2013-01-29 11:15:00,49.8,44.0,30.23,NNW,330,1.0,2.0,81,0.01,,,0.01,weatherlink.com 1.10,2013-01-29 16:15:00,
2013-01-29 11:30:00,51.7,45.0,30.22,NNW,330,1.0,2.0,77,0.02,,,0.02,weatherlink.com 1.10,2013-01-29 16:30:00,
2013-01-29 11:45:00,53.5,47.0,30.21,NNW,330,0.0,1.0,78,0.01,,,0.02,weatherlink.com 1.10,2013-01-29 16:45:00,
2013-01-29 12:00:00,54.8,46.0,30.20,NNW,332,0.0,2.0,72,0.02,,,0.03,weatherlink.com 1.10,2013-01-29 17:00:00,
2013-01-29 12:15:00,57.0,48.0,30.19,NNW,332,0.0,1.0,73,0.03,,,0.04,weatherlink.com 1.10,2013-01-29 17:15:00,
2013-01-29 12:30:00,60.2,49.0,30.18,NNE,26,1.0,3.0,66,0.02,,,0.04,weatherlink.com 1.10,2013-01-29 17:30:00,
2013-01-29 12:45:00,62.7,47.0,30.17,WSW,254,2.0,7.0,58,0.03,,,0.05,weatherlink.com 1.10,2013-01-29 17:45:00,
2013-01-29 13:00:00,64.5,47.0,30.16,WSW,252,3.0,9.0,54,0.02,,,0.05,weatherlink.com 1.10,2013-01-29 18:00:00,
2013-01-29 13:15:00,65.0,47.0,30.15,SSW,211,1.0,8.0,52,0.02,,,0.06,weatherlink.com 1.10,2013-01-29 18:15:00,
2013-01-29 13:30:00,65.2,46.0,30.14,WSW,250,2.0,5.0,50,0.02,,,0.06,weatherlink.com 1.10,2013-01-29 18:30:00,
2013-01-29 13:45:00,65.0,46.0,30.13,WNW,287,3.0,9.0,50,0.01,,,0.06,weatherlink.com 1.10,2013-01-29 18:45:00,
2013-01-29 14:00:00,64.3,46.0,30.13,West,267,2.0,4.0,51,0.01,,,0.06,weatherlink.com 1.10,2013-01-29 19:00:00,
2013-01-29 14:15:00,64.4,46.0,30.12,WSW,253,3.0,4.0,52,0.00,,,0.06,weatherlink.com 1.10,2013-01-29 19:15:00,
2013-01-29 14:30:00,64.1,46.0,30.13,West,269,0.0,2.0,52,0.00,,,0.06,weatherlink.com 1.10,2013-01-29 19:30:00,
2013-01-29 14:45:00,64.3,46.0,30.13,WSW,256,1.0,3.0,51,0.00,,,0.06,weatherlink.com 1.10,2013-01-29 19:45:00,
2013-01-29 15:01:00,63.3,46.0,30.12,SSW,207,0.0,3.0,53,0.00,,,0.06,weatherlink.com 1.10,2013-01-29 20:01:00,
2013-01-29 15:15:00,62.5,46.0,30.12,West,273,2.0,5.0,55,0.00,,,0.06,weatherlink.com 1.10,2013-01-29 20:15:00,
2013-01-29 15:30:00,62.5,46.0,30.12,SW,231,5.0,8.0,56,0.00,,,0.06,weatherlink.com 1.10,2013-01-29 20:30:00,
2013-01-29 15:45:00,62.1,46.0,30.12,West,275,0.0,5.0,57,0.00,,,0.06,weatherlink.com 1.10,2013-01-29 20:45:00,
2013-01-29 16:00:00,62.0,47.0,30.12,West,265,0.0,5.0,59,0.00,,,0.06,weatherlink.com 1.10,2013-01-29 21:00:00,
2013-01-29 16:15:00,61.2,47.0,30.11,SW,215,2.0,4.0,60,0.00,,,0.06,weatherlink.com 1.10,2013-01-29 21:15:00,
2013-01-29 16:31:00,60.7,48.0,30.11,WSW,248,0.0,2.0,63,0.00,,,0.06,weatherlink.com 1.10,2013-01-29 21:31:00,
2013-01-29 16:45:00,60.2,48.0,30.10,West,275,1.0,4.0,65,0.00,,,0.06,weatherlink.com 1.10,2013-01-29 21:45:00,
2013-01-29 17:01:00,60.3,49.0,30.11,West,275,0.0,1.0,66,0.00,,,0.06,weatherlink.com 1.10,2013-01-29 22:01:00,
2013-01-29 17:16:00,59.4,50.0,30.11,West,279,1.0,3.0,70,0.00,,,0.06,weatherlink.com 1.10,2013-01-29 22:16:00,
2013-01-29 17:31:00,58.2,51.0,30.10,West,277,2.0,3.0,76,0.00,,,0.06,weatherlink.com 1.10,2013-01-29 22:31:00,
2013-01-29 17:46:00,57.0,50.0,30.11,West,277,0.0,2.0,76,0.00,,,0.06,weatherlink.com 1.10,2013-01-29 22:46:00,
2013-01-29 18:01:00,55.3,49.0,30.10,West,277,0.0,1.0,79,0.00,,,0.06,weatherlink.com 1.10,2013-01-29 23:01:00,
2013-01-29 18:16:00,53.8,48.0,30.09,West,277,0.0,1.0,80,0.00,,,0.06,weatherlink.com 1.10,2013-01-29 23:16:00,
2013-01-29 18:31:00,51.9,47.0,30.09,West,277,0.0,1.0,84,0.00,,,0.06,weatherlink.com 1.10,2013-01-29 23:31:00,
2013-01-29 18:46:00,50.8,47.0,30.09,West,277,0.0,2.0,88,0.00,,,0.06,weatherlink.com 1.10,2013-01-29 23:46:00,
2013-01-29 19:01:00,51.6,49.0,30.10,West,277,0.0,1.0,90,0.00,,,0.06,weatherlink.com 1.10,2013-01-30 00:01:00,
2013-01-29 19:16:00,53.0,51.0,30.09,West,280,2.0,3.0,92,0.00,,,0.06,weatherlink.com 1.10,2013-01-30 00:16:00,
2013-01-29 19:31:00,54.6,53.0,30.08,WSW,240,2.0,7.0,93,0.00,,,0.06,weatherlink.com 1.10,2013-01-30 00:31:00,
2013-01-29 19:46:00,55.9,53.0,30.08,West,263,1.0,6.0,89,0.00,,,0.06,weatherlink.com 1.10,2013-01-30 00:46:00,
2013-01-29 20:01:00,54.8,51.0,30.09,North,5,0.0,3.0,87,0.00,,,0.06,weatherlink.com 1.10,2013-01-30 01:01:00,
2013-01-29 20:16:00,54.6,52.0,30.09,North,360,0.0,2.0,90,0.00,,,0.06,weatherlink.com 1.10,2013-01-30 01:16:00,
2013-01-29 20:31:00,54.8,52.0,30.10,WSW,250,0.0,2.0,90,0.00,,,0.06,weatherlink.com 1.10,2013-01-30 01:31:00,
2013-01-29 20:46:00,55.2,52.0,30.11,SW,217,1.0,4.0,90,0.00,,,0.06,weatherlink.com 1.10,2013-01-30 01:46:00,
2013-01-29 21:01:00,55.1,52.0,30.11,NE,54,0.0,3.0,90,0.00,,,0.06,weatherlink.com 1.10,2013-01-30 02:01:00,
2013-01-29 21:16:00,54.8,52.0,30.10,NE,54,0.0,3.0,90,0.00,,,0.06,weatherlink.com 1.10,2013-01-30 02:16:00,
2013-01-29 21:31:00,54.6,52.0,30.08,West,264,0.0,6.0,91,0.00,,,0.06,weatherlink.com 1.10,2013-01-30 02:31:00,
2013-01-29 21:46:00,55.0,52.0,30.08,NE,38,0.0,3.0,90,0.00,,,0.06,weatherlink.com 1.10,2013-01-30 02:46:00,
2013-01-29 22:01:00,54.6,52.0,30.07,NE,45,0.0,2.0,90,0.00,,,0.06,weatherlink.com 1.10,2013-01-30 03:01:00,
2013-01-29 22:16:00,54.8,52.0,30.07,NE,41,0.0,2.0,90,0.00,,,0.06,weatherlink.com 1.10,2013-01-30 03:16:00,
2013-01-29 22:31:00,54.7,53.0,30.07,ENE,57,0.0,3.0,92,0.00,,,0.06,weatherlink.com 1.10,2013-01-30 03:31:00,
2013-01-29 22:46:00,55.3,53.0,30.07,West,277,0.0,10.0,91,0.00,,,0.06,weatherlink.com 1.10,2013-01-30 03:46:00,
2013-01-29 23:01:00,55.3,53.0,30.05,NNW,334,0.0,7.0,90,0.00,,,0.06,weatherlink.com 1.10,2013-01-30 04:01:00,
2013-01-29 23:16:00,55.9,53.0,30.04,West,266,0.0,9.0,91,0.00,,,0.06,weatherlink.com 1.10,2013-01-30 04:16:00,
2013-01-29 23:31:00,56.2,53.0,30.03,West,259,0.0,5.0,90,0.00,,,0.06,weatherlink.com 1.10,2013-01-30 04:31:00,
2013-01-29 23:46:00,57.1,54.0,30.01,WSW,248,5.0,9.0,90,0.00,,,0.06,weatherlink.com 1.10,2013-01-30 04:46:00,